Time;durP1;ratioP1;P1;durP2;ratioP2;P2;SDS_P1;SDS_P2;PMS_P1;PMS_P2;Temp;Humidity;BMP_temperature;BMP_pressure;BME280_temperature;BME280_humidity;BME280_pressure;Samples;Min_cycle;Max_cycle;Signal;HPM_P1;HPM_P2
2022/03/16 00:01:51;;;;;;;11.70;10.23;;;;;;;7.92;74.26;100511.69;5003141;28;20060;-89
2022/03/16 00:04:16;;;;;;;14.32;11.23;;;;;;;8.03;74.52;100515.31;4999914;28;20026;-88
2022/03/16 00:06:41;;;;;;;14.70;11.57;;;;;;;8.00;74.42;100512.84;5005029;28;20036;-88
2022/03/16 00:09:06;;;;;;;12.57;10.93;;;;;;;7.97;74.41;100512.22;5004082;28;20389;-88
2022/03/16 00:11:32;;;;;;;13.85;10.85;;;;;;;7.92;74.33;100517.88;5016960;28;20945;-89
2022/03/16 00:13:57;;;;;;;12.25;10.70;;;;;;;7.87;74.20;100507.56;5016014;28;20394;-89
2022/03/16 00:16:23;;;;;;;12.93;10.77;;;;;;;7.84;74.67;100513.09;4998725;28;21034;-89
2022/03/16 00:18:48;;;;;;;13.68;10.77;;;;;;;7.80;74.45;100508.09;5000295;28;20037;-89
2022/03/16 00:21:13;;;;;;;14.43;11.43;;;;;;;7.80;74.35;100508.09;5015666;28;20041;-89
2022/03/16 00:23:39;;;;;;;14.70;10.95;;;;;;;7.77;74.62;100503.81;5022978;28;20069;-91
2022/03/16 00:26:04;;;;;;;13.60;10.57;;;;;;;7.82;74.44;100508.84;5009797;28;20065;-89
2022/03/16 00:28:29;;;;;;;12.13;9.32;;;;;;;7.80;74.70;100503.63;5000536;28;20116;-88
2022/03/16 00:30:55;;;;;;;9.93;8.77;;;;;;;7.79;74.50;100504.56;5001161;28;20033;-89
2022/03/16 00:33:21;;;;;;;14.13;9.13;;;;;;;7.81;75.18;100496.47;5016927;28;20033;-88
2022/03/16 00:35:46;;;;;;;11.23;8.95;;;;;;;7.77;75.22;100490.53;5019163;28;20037;-89
2022/03/16 00:38:14;;;;;;;10.30;8.93;;;;;;;7.82;75.32;100487.53;4999867;28;20033;-89
2022/03/16 00:40:39;;;;;;;10.52;8.43;;;;;;;7.76;75.05;100480.81;4999747;28;20041;-89
2022/03/16 00:43:05;;;;;;;9.38;8.32;;;;;;;7.77;75.49;100477.22;5001190;28;20030;-88
2022/03/16 00:45:30;;;;;;;9.88;8.75;;;;;;;7.77;75.06;100482.53;4999247;28;20586;-89
2022/03/16 00:47:56;;;;;;;9.68;8.50;;;;;;;7.76;75.25;100480.81;4998629;28;20426;-88
2022/03/16 00:50:21;;;;;;;9.55;8.57;;;;;;;7.74;75.22;100472.09;5001268;28;20176;-89
2022/03/16 00:52:46;;;;;;;9.90;8.77;;;;;;;7.75;75.20;100468.47;4999966;28;20391;-89
2022/03/16 00:55:12;;;;;;;9.82;8.82;;;;;;;7.75;75.33;100483.59;5000705;28;20091;-88
2022/03/16 00:57:37;;;;;;;9.25;7.82;;;;;;;7.73;76.02;100480.19;4999113;28;20106;-88
2022/03/16 01:00:04;;;;;;;8.65;7.75;;;;;;;7.71;75.98;100479.44;5001337;28;20056;-89
2022/03/16 01:02:30;;;;;;;10.60;8.38;;;;;;;7.74;76.11;100476.56;4998766;28;20433;-89
2022/03/16 01:04:55;;;;;;;8.90;8.00;;;;;;;7.76;76.09;100475.50;5016189;28;20079;-89
2022/03/16 01:07:20;;;;;;;8.35;7.50;;;;;;;7.85;75.90;100474.84;5000086;28;20044;-89
2022/03/16 01:09:46;;;;;;;8.70;7.80;;;;;;;7.93;76.20;100476.97;5000823;28;20033;-88
2022/03/16 01:12:11;;;;;;;8.75;7.78;;;;;;;7.83;76.18;100465.28;4998314;28;20893;-89
2022/03/16 01:14:37;;;;;;;8.43;7.25;;;;;;;7.92;76.35;100474.41;4998786;28;20506;-89
2022/03/16 01:17:02;;;;;;;9.18;7.75;;;;;;;7.89;76.12;100463.03;5021106;28;20932;-90
2022/03/16 01:19:29;;;;;;;9.27;7.97;;;;;;;7.91;76.20;100470.91;5005632;28;20038;-89
2022/03/16 01:21:55;;;;;;;10.48;8.57;;;;;;;7.88;76.31;100469.31;5001862;28;20033;-90
2022/03/16 01:24:20;;;;;;;8.93;7.75;;;;;;;7.84;76.61;100465.16;5019469;28;20032;-89
2022/03/16 01:26:45;;;;;;;10.07;7.97;;;;;;;7.80;76.63;100476.13;5002810;28;20034;-89
2022/03/16 01:29:11;;;;;;;8.80;7.90;;;;;;;7.85;76.86;100468.69;5004271;28;20570;-89
2022/03/16 01:31:36;;;;;;;8.55;7.38;;;;;;;7.90;76.71;100472.72;5003587;28;20728;-89
2022/03/16 01:34:02;;;;;;;8.25;7.32;;;;;;;7.87;76.41;100464.09;5004260;28;20021;-88
2022/03/16 01:36:27;;;;;;;10.15;7.90;;;;;;;7.83;76.53;100470.59;5003327;28;20046;-89
2022/03/16 01:38:52;;;;;;;10.20;8.00;;;;;;;7.76;76.97;100467.53;5002255;28;20120;-88
2022/03/16 01:41:18;;;;;;;8.77;7.47;;;;;;;7.74;77.14;100461.44;5005266;28;20499;-88
2022/03/16 01:43:43;;;;;;;8.88;7.50;;;;;;;7.76;77.27;100466.66;5001734;28;20492;-88
2022/03/16 01:46:09;;;;;;;8.75;7.28;;;;;;;7.75;76.93;100467.63;5018989;28;20093;-89
2022/03/16 01:48:34;;;;;;;9.38;7.57;;;;;;;7.72;77.12;100458.03;5019222;28;20487;-88
2022/03/16 01:51:00;;;;;;;8.45;7.18;;;;;;;7.68;76.78;100450.38;5003075;28;20034;-89
2022/03/16 01:53:26;;;;;;;8.95;6.95;;;;;;;7.68;77.58;100456.56;5002513;28;20048;-88
2022/03/16 01:55:52;;;;;;;9.48;6.97;;;;;;;7.71;77.68;100452.84;5011286;28;20029;-89
2022/03/16 01:58:17;;;;;;;9.23;7.78;;;;;;;7.69;77.59;100454.75;5002563;28;20052;-90
2022/03/16 02:00:57;;;;;;;9.20;7.28;;;;;;;7.68;77.35;100450.38;5018172;28;20037;-88
2022/03/16 02:03:22;;;;;;;9.70;7.18;;;;;;;7.65;77.31;100459.44;5003385;28;20060;-89
2022/03/16 02:05:48;;;;;;;8.25;6.95;;;;;;;7.61;77.35;100455.28;5003711;28;20037;-88
2022/03/16 02:08:13;;;;;;;7.97;6.85;;;;;;;7.60;77.21;100448.25;5003592;28;20037;-89
2022/03/16 02:10:40;;;;;;;8.65;7.47;;;;;;;7.55;77.33;100461.00;5016437;28;20041;-90
2022/03/16 02:13:08;;;;;;;9.30;7.45;;;;;;;7.58;77.23;100467.00;5003499;28;20072;-88
2022/03/16 02:15:33;;;;;;;9.65;7.78;;;;;;;7.53;77.30;100465.59;5015333;28;20047;-89
2022/03/16 02:17:58;;;;;;;9.35;7.68;;;;;;;7.51;77.21;100459.50;5002083;28;20494;-89
2022/03/16 02:20:27;;;;;;;8.63;7.38;;;;;;;7.51;77.45;100459.50;5000918;28;20048;-89
2022/03/16 02:22:56;;;;;;;8.43;7.55;;;;;;;7.49;77.15;100456.09;5002884;28;20025;-89
2022/03/16 02:25:26;;;;;;;8.07;6.93;;;;;;;7.47;77.19;100458.03;5002402;28;20069;-89
2022/03/16 02:27:52;;;;;;;10.85;7.88;;;;;;;7.42;77.41;100461.00;5017001;28;20064;-90
2022/03/16 02:30:19;;;;;;;8.75;7.60;;;;;;;7.44;77.49;100451.09;5001338;28;20505;-90
2022/03/16 02:32:44;;;;;;;9.40;7.85;;;;;;;7.37;77.36;100449.81;5018014;28;20040;-89
2022/03/16 02:35:09;;;;;;;10.18;8.27;;;;;;;7.37;77.33;100449.81;5001357;28;20029;-88
2022/03/16 02:37:37;;;;;;;9.15;7.88;;;;;;;7.38;77.42;100456.00;5001364;28;20030;-89
2022/03/16 02:40:02;;;;;;;8.85;7.95;;;;;;;7.37;77.35;100448.97;5001709;28;20037;-89
2022/03/16 02:42:27;;;;;;;9.27;7.82;;;;;;;7.32;77.63;100459.09;5001377;28;20254;-89
2022/03/16 02:44:53;;;;;;;10.55;8.13;;;;;;;7.33;77.10;100460.78;5001908;28;20029;-88
2022/03/16 02:47:18;;;;;;;9.65;7.70;;;;;;;7.35;77.59;100453.56;5002378;28;20038;-89
2022/03/16 02:49:43;;;;;;;10.70;8.18;;;;;;;7.29;77.44;100446.84;5003288;28;20380;-89
2022/03/16 02:52:09;;;;;;;8.88;7.78;;;;;;;7.28;77.60;100449.63;5018389;28;20470;-88
2022/03/16 02:54:34;;;;;;;10.95;8.32;;;;;;;7.25;77.29;100456.00;5016358;28;20081;-88
2022/03/16 02:57:00;;;;;;;12.60;8.35;;;;;;;7.26;77.57;100458.53;5010571;28;20063;-88
2022/03/16 02:59:26;;;;;;;9.98;8.13;;;;;;;7.29;77.64;100459.28;5003312;28;20025;-90
2022/03/16 03:01:51;;;;;;;11.57;8.48;;;;;;;7.32;77.39;100459.94;5013575;28;20029;-88
2022/03/16 03:04:16;;;;;;;10.55;8.25;;;;;;;7.30;77.64;100456.53;5001131;28;20555;-89
2022/03/16 03:06:42;;;;;;;10.38;8.45;;;;;;;7.32;77.21;100459.94;5000195;28;20467;-88
2022/03/16 03:09:07;;;;;;;10.80;8.40;;;;;;;7.31;77.23;100460.03;5018192;28;20558;-89
2022/03/16 03:11:32;;;;;;;9.90;8.25;;;;;;;7.30;76.58;100459.19;5001655;28;20561;-88
2022/03/16 03:13:58;;;;;;;11.52;8.60;;;;;;;7.36;76.67;100461.44;5000465;28;20038;-88
2022/03/16 03:16:23;;;;;;;10.27;8.30;;;;;;;7.36;76.62;100455.25;5000150;28;20023;-89
2022/03/16 03:18:48;;;;;;;9.85;8.48;;;;;;;7.31;76.64;100452.91;5002391;28;20617;-89
2022/03/16 03:21:14;;;;;;;10.77;8.35;;;;;;;7.32;76.13;100456.41;5001426;28;20034;-89
2022/03/16 03:23:39;;;;;;;12.18;8.43;;;;;;;7.27;76.64;100454.09;5002411;28;20084;-89
2022/03/16 03:26:04;;;;;;;10.18;8.10;;;;;;;7.23;76.70;100447.25;5000682;28;20072;-89
2022/03/16 03:28:30;;;;;;;9.80;8.38;;;;;;;7.22;76.76;100448.22;5000169;28;20037;-89
2022/03/16 03:30:55;;;;;;;11.43;8.85;;;;;;;7.22;76.89;100442.91;5016936;28;20038;-88
2022/03/16 03:33:20;;;;;;;10.98;8.43;;;;;;;7.23;76.87;100442.81;5017246;28;20100;-89
2022/03/16 03:35:46;;;;;;;10.88;8.52;;;;;;;7.21;77.44;100446.53;4999505;28;20069;-88
2022/03/16 03:38:13;;;;;;;10.32;7.78;;;;;;;7.37;77.17;100441.00;4997518;28;20091;-89
2022/03/16 03:40:38;;;;;;;11.15;8.40;;;;;;;7.39;76.77;100449.72;5000898;28;20700;-89
2022/03/16 03:43:03;;;;;;;12.05;8.65;;;;;;;7.33;76.59;100450.16;5000932;28;20076;-89
2022/03/16 03:45:29;;;;;;;11.48;8.65;;;;;;;7.25;76.46;100448.00;4999891;28;20049;-91
2022/03/16 03:47:54;;;;;;;11.40;8.88;;;;;;;7.23;76.49;100445.47;5000932;28;20128;-88
2022/03/16 03:50:19;;;;;;;10.13;8.40;;;;;;;7.21;76.50;100447.38;4999193;28;20091;-91
2022/03/16 03:52:45;;;;;;;12.13;8.02;;;;;;;7.19;76.78;100451.09;5017292;28;20038;-89
2022/03/16 03:55:10;;;;;;;10.15;8.15;;;;;;;7.24;76.62;100447.16;4999409;28;20030;-88
2022/03/16 03:57:35;;;;;;;10.13;8.25;;;;;;;7.20;76.57;100447.47;4998217;28;20593;-89
2022/03/16 04:00:01;;;;;;;10.65;8.25;;;;;;;7.19;76.34;100440.44;4999017;28;20088;-89
2022/03/16 04:02:26;;;;;;;9.98;8.02;;;;;;;7.10;76.70;100433.97;4998652;28;20029;-89
2022/03/16 04:04:51;;;;;;;9.90;8.05;;;;;;;7.11;76.66;100442.78;4999302;28;20101;-90
2022/03/16 04:07:17;;;;;;;10.57;8.07;;;;;;;7.07;76.24;100438.59;4999997;28;20136;-89
2022/03/16 04:09:42;;;;;;;9.73;7.72;;;;;;;7.06;76.95;100435.09;5000459;28;20071;-88
2022/03/16 04:12:08;;;;;;;9.55;7.53;;;;;;;7.04;76.76;100433.50;5000546;28;20030;-88
2022/03/16 04:14:33;;;;;;;10.73;8.05;;;;;;;7.00;76.65;100426.69;5000007;28;20061;-89
2022/03/16 04:16:59;;;;;;;10.65;8.30;;;;;;;7.01;76.70;100429.22;5001215;28;20160;-90
2022/03/16 04:19:24;;;;;;;9.15;7.57;;;;;;;7.02;76.90;100432.75;4999331;28;20115;-88
2022/03/16 04:21:49;;;;;;;9.88;7.97;;;;;;;7.03;76.62;100432.63;4999749;28;20045;-90
2022/03/16 04:24:15;;;;;;;9.15;7.53;;;;;;;7.03;76.69;100437.09;5000379;28;20361;-89
2022/03/16 04:26:40;;;;;;;10.73;8.02;;;;;;;7.01;77.22;100431.03;5001131;28;20521;-90
2022/03/16 04:29:05;;;;;;;8.55;7.35;;;;;;;7.03;76.94;100431.78;5000153;28;20494;-89
2022/03/16 04:31:31;;;;;;;10.65;8.32;;;;;;;7.04;77.08;100429.03;4999460;28;20037;-89
2022/03/16 04:33:57;;;;;;;9.57;7.50;;;;;;;6.98;76.75;100421.47;5001356;28;20030;-89
2022/03/16 04:36:23;;;;;;;10.38;7.90;;;;;;;6.99;76.70;100417.00;5015943;28;20056;-89
2022/03/16 04:38:50;;;;;;;8.70;7.03;;;;;;;6.96;77.17;100415.41;5000151;28;20415;-91
2022/03/16 04:41:15;;;;;;;9.05;7.43;;;;;;;6.95;77.18;100417.22;5014671;28;20025;-89
2022/03/16 04:43:41;;;;;;;8.98;7.45;;;;;;;6.93;77.27;100419.13;4999181;28;20096;-89
2022/03/16 04:46:06;;;;;;;9.43;7.45;;;;;;;6.93;78.12;100418.28;5015366;28;20108;-89
2022/03/16 04:48:31;;;;;;;9.40;7.40;;;;;;;7.06;77.58;100419.13;5000306;28;20109;-89
2022/03/16 04:51:10;;;;;;;9.23;7.53;;;;;;;7.00;77.31;100422.22;4998952;28;20140;-89
2022/03/16 04:53:35;;;;;;;9.57;7.57;;;;;;;7.02;77.27;100420.31;4998749;28;20059;-89
2022/03/16 04:56:00;;;;;;;9.13;7.60;;;;;;;7.06;77.36;100421.78;4999302;28;20040;-89
2022/03/16 04:58:26;;;;;;;8.98;7.55;;;;;;;7.16;77.39;100424.72;4998124;28;20032;-88
2022/03/16 05:00:51;;;;;;;9.48;7.60;;;;;;;7.14;77.23;100423.97;4998817;28;20116;-89
2022/03/16 05:03:17;;;;;;;8.70;7.43;;;;;;;7.06;77.61;100428.91;4999502;28;20044;-89
2022/03/16 05:05:42;;;;;;;8.23;7.13;;;;;;;7.01;77.50;100418.59;4998445;28;20034;-89
2022/03/16 05:08:08;;;;;;;8.95;7.28;;;;;;;6.98;77.79;100413.50;4999258;28;20034;-89
2022/03/16 05:10:33;;;;;;;10.55;7.78;;;;;;;7.03;77.50;100408.72;5002323;28;20029;-90
2022/03/16 05:12:59;;;;;;;10.80;7.72;;;;;;;7.03;77.57;100405.19;5001898;28;20400;-88
2022/03/16 05:15:24;;;;;;;10.13;7.82;;;;;;;6.99;78.00;100404.56;4998527;28;20033;-88
2022/03/16 05:17:49;;;;;;;8.85;7.32;;;;;;;7.01;77.76;100407.97;5009483;28;20025;-89
2022/03/16 05:20:16;;;;;;;8.48;7.40;;;;;;;6.99;78.20;100404.56;4999642;28;20040;-89
2022/03/16 05:22:43;;;;;;;9.57;7.70;;;;;;;6.98;78.03;100415.28;5014521;28;20073;-88
2022/03/16 05:25:11;;;;;;;11.43;8.30;;;;;;;6.98;78.15;100412.63;5008775;28;20521;-88
2022/03/16 05:27:36;;;;;;;10.65;7.80;;;;;;;6.99;77.77;100415.19;5013977;28;20048;-88
2022/03/16 05:30:02;;;;;;;8.60;7.22;;;;;;;6.96;78.09;100415.41;4999757;28;20044;-89
2022/03/16 05:32:27;;;;;;;10.20;7.53;;;;;;;6.89;78.38;100412.31;4998143;28;20034;-89
2022/03/16 05:34:52;;;;;;;11.00;7.82;;;;;;;6.90;78.16;100413.16;5016137;28;20033;-89
2022/03/16 05:37:18;;;;;;;10.57;8.13;;;;;;;6.88;78.23;100423.91;5001743;28;20042;-88
2022/03/16 05:39:43;;;;;;;9.95;7.90;;;;;;;6.86;78.43;100416.97;4999022;28;20038;-89
2022/03/16 05:42:08;;;;;;;10.85;8.43;;;;;;;6.85;78.25;100417.94;5000649;28;20061;-88
2022/03/16 05:44:35;;;;;;;9.63;7.85;;;;;;;6.84;78.39;100424.22;5000187;28;20075;-89
2022/03/16 05:47:00;;;;;;;11.25;8.00;;;;;;;6.86;78.31;100411.66;4999580;28;20491;-89
2022/03/16 05:49:28;;;;;;;9.82;8.25;;;;;;;6.88;78.69;100415.91;5001665;28;20152;-90
2022/03/16 05:51:53;;;;;;;10.95;7.65;;;;;;;6.88;78.58;100423.03;5000245;28;20030;-88
2022/03/16 05:54:19;;;;;;;9.55;7.88;;;;;;;6.90;78.70;100419.31;4999854;28;20057;-88
2022/03/16 05:56:44;;;;;;;10.50;8.30;;;;;;;6.92;78.27;100420.06;5001415;28;20037;-89
2022/03/16 05:59:09;;;;;;;10.80;8.35;;;;;;;6.90;78.35;100413.16;4999488;28;20072;-89
2022/03/16 06:01:35;;;;;;;11.10;8.43;;;;;;;6.92;78.65;100412.09;5004154;28;20068;-88
2022/03/16 06:04:00;;;;;;;10.40;7.97;;;;;;;6.91;78.30;100412.19;5007322;28;20103;-90
2022/03/16 06:06:26;;;;;;;15.93;13.73;;;;;;;6.95;78.30;100413.69;5002817;28;20037;-88
2022/03/16 06:08:52;;;;;;;12.43;10.00;;;;;;;6.95;78.68;100414.56;5004630;28;20033;-88
2022/03/16 06:11:17;;;;;;;13.00;8.65;;;;;;;6.92;78.38;100416.56;5003172;28;20037;-89
2022/03/16 06:13:43;;;;;;;12.30;8.38;;;;;;;6.90;78.64;100418.47;5004594;28;20030;-89
2022/03/16 06:16:08;;;;;;;14.55;8.93;;;;;;;6.90;78.46;100414.00;5004157;28;20557;-89
2022/03/16 06:18:33;;;;;;;11.35;7.97;;;;;;;6.87;78.85;100411.56;5002379;28;20040;-89
2022/03/16 06:20:59;;;;;;;10.65;8.02;;;;;;;6.91;78.83;100413.06;5003406;28;20033;-89
2022/03/16 06:23:24;;;;;;;11.95;9.02;;;;;;;6.95;79.05;100413.69;5018801;28;20033;-91
2022/03/16 06:25:50;;;;;;;11.95;8.23;;;;;;;6.94;78.51;100412.84;5003182;28;20136;-88
2022/03/16 06:28:15;;;;;;;11.32;8.90;;;;;;;6.98;78.95;100412.63;5005620;28;20115;-89
2022/03/16 06:30:40;;;;;;;11.50;8.95;;;;;;;7.00;78.78;100414.25;5005767;28;20049;-89
2022/03/16 06:33:06;;;;;;;11.90;9.18;;;;;;;6.98;79.03;100413.50;5004119;28;20050;-89
2022/03/16 06:35:32;;;;;;;13.32;9.20;;;;;;;6.94;79.07;100412.84;5001541;28;20030;-88
2022/03/16 06:37:57;;;;;;;10.90;8.60;;;;;;;7.01;79.11;100413.28;5020716;28;20121;-89
2022/03/16 06:40:23;;;;;;;11.77;8.43;;;;;;;7.03;78.39;100416.69;5004284;28;20526;-89
2022/03/16 06:42:59;;;;;;;10.70;8.55;;;;;;;6.97;78.54;100406.47;5004594;28;20029;-88
2022/03/16 06:45:26;;;;;;;11.18;8.68;;;;;;;6.97;78.75;100413.59;5019628;28;20029;-89
2022/03/16 06:47:54;;;;;;;12.70;8.57;;;;;;;6.91;79.22;100421.03;5011102;28;20476;-89
2022/03/16 06:50:20;;;;;;;12.32;9.18;;;;;;;7.05;79.06;100421.91;5010892;28;20025;-89
2022/03/16 06:52:46;;;;;;;11.80;9.00;;;;;;;7.03;78.75;100431.78;5014282;28;20029;-91
2022/03/16 06:55:11;;;;;;;13.90;9.32;;;;;;;6.99;78.80;100430.28;4999198;28;20112;-89
2022/03/16 06:57:36;;;;;;;13.52;9.48;;;;;;;6.98;78.69;100437.41;4999982;28;20052;-89
2022/03/16 07:00:04;;;;;;;12.30;9.60;;;;;;;6.99;79.07;100441.78;5000283;28;20033;-89
2022/03/16 07:02:29;;;;;;;13.15;9.15;;;;;;;6.97;79.12;100442.84;5018376;28;20040;-88
2022/03/16 07:04:55;;;;;;;10.93;8.80;;;;;;;7.03;79.40;100453.91;5003478;28;20101;-88
2022/03/16 07:07:20;;;;;;;13.52;9.07;;;;;;;7.03;79.39;100451.25;5016476;28;20057;-89
2022/03/16 07:09:45;;;;;;;11.32;9.10;;;;;;;7.03;78.79;100447.75;4998983;28;20029;-88
2022/03/16 07:12:11;;;;;;;11.10;8.93;;;;;;;7.04;79.14;100441.47;5003968;28;20030;-89
2022/03/16 07:14:37;;;;;;;11.45;9.02;;;;;;;6.95;79.16;100432.31;5004971;28;20026;-89
2022/03/16 07:17:03;;;;;;;12.32;8.88;;;;;;;6.93;79.23;100428.91;5003741;28;20025;-88
2022/03/16 07:19:28;;;;;;;9.10;7.97;;;;;;;6.98;79.90;100433.91;5003014;28;20042;-88
2022/03/16 07:21:56;;;;;;;11.40;8.48;;;;;;;7.01;79.45;100436.34;5002343;28;20030;-88
2022/03/16 07:24:22;;;;;;;10.73;8.52;;;;;;;7.06;79.85;100442.22;5018608;28;20116;-89
2022/03/16 07:26:47;;;;;;;11.40;9.07;;;;;;;7.09;79.76;100431.38;5016580;28;20543;-89
2022/03/16 07:29:12;;;;;;;12.32;8.88;;;;;;;7.05;79.98;100440.50;4999830;28;20040;-89
2022/03/16 07:31:38;;;;;;;12.77;8.57;;;;;;;7.08;80.08;100440.31;5002039;28;20045;-90
2022/03/16 07:34:03;;;;;;;13.45;8.73;;;;;;;7.14;80.14;100439.91;5004347;28;20026;-89
2022/03/16 07:36:31;;;;;;;11.02;9.00;;;;;;;7.12;79.96;100440.03;5001422;28;20040;-89
2022/03/16 07:38:56;;;;;;;14.35;10.00;;;;;;;7.15;80.28;100438.97;5001661;28;20535;-90
2022/03/16 07:41:22;;;;;;;14.05;8.90;;;;;;;7.12;80.75;100440.03;4999571;28;20123;-90
2022/03/16 07:43:47;;;;;;;11.30;8.98;;;;;;;7.08;80.27;100440.31;5010870;28;20549;-88
2022/03/16 07:46:13;;;;;;;11.95;9.10;;;;;;;7.10;80.89;100430.44;5002004;28;20133;-88
2022/03/16 07:48:40;;;;;;;11.75;9.48;;;;;;;7.16;80.99;100433.53;5019445;28;20112;-90
2022/03/16 07:51:06;;;;;;;15.52;9.02;;;;;;;7.17;80.77;100429.06;5001255;28;20030;-88
2022/03/16 07:53:31;;;;;;;11.77;9.23;;;;;;;7.20;81.42;100426.19;5016748;28;20112;-90
2022/03/16 07:55:57;;;;;;;10.77;9.05;;;;;;;7.23;81.03;100418.84;5014957;28;20127;-89
2022/03/16 07:58:23;;;;;;;12.32;8.90;;;;;;;7.25;81.31;100422.28;5015545;28;20108;-90
2022/03/16 08:00:48;;;;;;;11.95;8.48;;;;;;;7.31;81.13;100420.13;5011797;28;20034;-89
2022/03/16 08:03:14;;;;;;;14.13;8.95;;;;;;;7.37;81.23;100412.59;5009380;28;20650;-88
2022/03/16 08:05:39;;;;;;;10.75;8.55;;;;;;;7.42;80.96;100420.25;5008310;28;20033;-89
2022/03/16 08:08:05;;;;;;;12.57;8.45;;;;;;;7.34;81.58;100423.44;5007210;28;20061;-89
2022/03/16 08:10:31;;;;;;;11.65;8.98;;;;;;;7.33;81.49;100428.88;4995908;28;20510;-89
2022/03/16 08:12:56;;;;;;;10.00;8.10;;;;;;;7.39;81.87;100421.31;4995670;28;20336;-88
2022/03/16 08:15:22;;;;;;;11.35;8.57;;;;;;;7.42;81.84;100420.25;5012602;28;20028;-89
2022/03/16 08:17:47;;;;;;;12.93;9.10;;;;;;;7.48;81.90;100418.00;5012234;28;20032;-89
2022/03/16 08:20:12;;;;;;;11.32;8.90;;;;;;;7.42;82.07;100417.59;4996188;28;20057;-90
2022/03/16 08:22:38;;;;;;;10.73;7.80;;;;;;;7.44;82.25;100413.84;4995685;28;20112;-88
2022/03/16 08:25:05;;;;;;;9.73;8.15;;;;;;;7.52;82.55;100414.16;4995484;28;20025;-89
2022/03/16 08:27:31;;;;;;;10.77;8.10;;;;;;;7.58;82.12;100408.44;5011748;28;20075;-89
2022/03/16 08:29:56;;;;;;;10.15;8.10;;;;;;;7.65;82.00;100408.00;5011523;28;20434;-90
2022/03/16 08:32:22;;;;;;;10.52;8.20;;;;;;;7.64;82.25;100408.97;5000146;28;20037;-89
2022/03/16 08:34:48;;;;;;;9.90;7.68;;;;;;;7.64;82.79;100414.28;5006478;28;20367;-89
2022/03/16 08:37:14;;;;;;;9.88;8.07;;;;;;;7.66;82.51;100417.69;5005417;28;20029;-89
2022/03/16 08:39:40;;;;;;;10.02;7.80;;;;;;;7.65;82.94;100414.19;5017377;28;20022;-92
2022/03/16 08:42:07;;;;;;;9.77;7.60;;;;;;;7.73;82.94;100414.50;5006439;28;20041;-91
2022/03/16 08:44:32;;;;;;;9.95;7.65;;;;;;;7.73;83.09;100421.63;5009264;28;20033;-91
2022/03/16 08:46:58;;;;;;;10.35;8.00;;;;;;;7.73;83.08;100417.16;5009383;28;20120;-89
2022/03/16 08:49:23;;;;;;;8.75;7.13;;;;;;;7.72;84.08;100414.59;5007569;28;20106;-91
2022/03/16 08:51:48;;;;;;;8.93;6.70;;;;;;;7.76;84.05;100419.59;5006660;28;20063;-91
2022/03/16 08:54:14;;;;;;;9.23;7.25;;;;;;;7.83;83.70;100425.34;5006588;28;20067;-92
2022/03/16 08:56:39;;;;;;;9.98;6.65;;;;;;;7.88;84.28;100415.22;5021871;28;20042;-91
2022/03/16 08:59:06;;;;;;;8.48;6.45;;;;;;;7.97;83.51;100403.91;5007644;28;20103;-92
2022/03/16 09:01:31;;;;;;;9.20;6.53;;;;;;;8.02;83.68;100412.41;5006199;28;20026;-90
2022/03/16 09:03:56;;;;;;;8.00;6.38;;;;;;;8.08;84.26;100413.81;5023341;28;20084;-92
2022/03/16 09:06:22;;;;;;;9.18;6.45;;;;;;;8.09;84.72;100416.34;5024070;28;20060;-92
2022/03/16 09:08:47;;;;;;;8.68;6.22;;;;;;;8.09;84.35;100416.34;5008216;28;20030;-92
2022/03/16 09:11:13;;;;;;;8.07;5.90;;;;;;;8.11;84.53;100403.78;5024140;28;20033;-90
2022/03/16 09:13:39;;;;;;;7.00;5.18;;;;;;;8.15;84.85;100404.41;5006694;28;20256;-90
2022/03/16 09:16:04;;;;;;;6.38;5.40;;;;;;;8.16;84.77;100404.28;5006566;28;20037;-90
2022/03/16 09:18:30;;;;;;;8.73;5.18;;;;;;;8.20;85.03;100402.25;5005567;28;20112;-89
2022/03/16 09:20:55;;;;;;;6.05;4.93;;;;;;;8.24;85.15;100403.72;5024748;28;20068;-91
2022/03/16 09:23:21;;;;;;;7.63;5.05;;;;;;;8.28;85.62;100396.34;5022444;28;20038;-92
2022/03/16 09:25:46;;;;;;;5.20;4.63;;;;;;;8.32;85.69;100396.03;5024208;28;20038;-91
2022/03/16 09:28:12;;;;;;;5.40;4.20;;;;;;;8.30;85.97;100386.44;5023122;28;20038;-91
2022/03/16 09:30:37;;;;;;;6.20;4.55;;;;;;;8.37;86.22;100399.22;5007073;28;20574;-90
2022/03/16 09:33:04;;;;;;;5.50;4.82;;;;;;;8.48;86.03;100388.63;5005326;28;20029;-87
2022/03/16 09:35:30;;;;;;;5.55;4.22;;;;;;;8.46;85.68;100393.22;5006253;28;20034;-91
2022/03/16 09:37:58;;;;;;;5.55;4.03;;;;;;;8.46;85.99;100398.53;5026508;28;20041;-91
2022/03/16 09:40:24;;;;;;;4.03;3.43;;;;;;;8.48;85.79;100398.44;5011313;28;20044;-87
2022/03/16 09:42:50;;;;;;;4.97;3.97;;;;;;;8.52;85.75;100394.59;5027320;28;20045;-91
2022/03/16 09:45:20;;;;;;;4.53;3.85;;;;;;;8.60;86.31;100394.03;5025962;28;20391;-88
2022/03/16 09:47:47;;;;;;;5.60;3.53;;;;;;;8.66;86.16;100396.22;5027371;28;20034;-91
2022/03/16 09:50:12;;;;;;;4.65;3.42;;;;;;;8.66;86.14;100397.09;5010746;28;20030;-92
2022/03/16 09:52:39;;;;;;;5.13;3.65;;;;;;;8.66;86.13;100397.09;5009944;28;20057;-92
2022/03/16 09:55:05;;;;;;;4.28;3.40;;;;;;;8.69;86.32;100404.84;5010930;28;20068;-88
2022/03/16 09:57:31;;;;;;;6.80;3.80;;;;;;;8.75;86.54;100403.53;5011897;28;20124;-92
2022/03/16 09:59:56;;;;;;;4.60;3.20;;;;;;;8.72;86.92;100390.44;5017723;28;20056;-89
2022/03/16 10:02:22;;;;;;;4.90;3.25;;;;;;;8.72;87.03;100385.97;5019871;28;20047;-91
2022/03/16 10:04:48;;;;;;;3.45;3.10;;;;;;;8.75;86.69;100396.38;5017692;28;20025;-88
2022/03/16 10:07:13;;;;;;;3.72;3.00;;;;;;;8.80;86.91;100394.22;5018988;28;20117;-91
2022/03/16 10:15:13;;;;;;;5.43;3.30;;;;;;;8.89;87.10;100400.69;5036104;28;20126;-88
2022/03/16 10:17:45;;;;;;;3.97;3.28;;;;;;;8.94;87.12;100389.66;5017147;28;20061;-91
2022/03/16 10:20:26;;;;;;;5.32;3.15;;;;;;;9.05;87.02;100387.03;5025978;28;20025;-89
2022/03/16 10:22:53;;;;;;;3.45;2.78;;;;;;;9.02;87.15;100388.13;5022128;28;20041;-89
2022/03/16 10:25:18;;;;;;;4.03;2.92;;;;;;;9.08;87.18;100385.00;5026521;28;20045;-92
2022/03/16 10:27:43;;;;;;;4.03;2.75;;;;;;;9.09;87.31;100384.03;5024648;28;20037;-91
2022/03/16 10:30:09;;;;;;;5.53;2.97;;;;;;;9.13;87.23;100376.63;5010676;28;20025;-89
2022/03/16 10:32:34;;;;;;;5.07;3.10;;;;;;;9.15;87.43;100374.69;5010854;28;20026;-92
2022/03/16 10:35:05;;;;;;;3.08;2.78;;;;;;;9.12;87.49;100365.09;5011438;28;20068;-90
2022/03/16 10:37:31;;;;;;;3.55;3.10;;;;;;;9.12;87.04;100364.25;5011149;28;20040;-90
2022/03/16 10:39:58;;;;;;;4.57;3.42;;;;;;;9.18;87.66;100371.78;5009978;28;20067;-92
2022/03/16 10:48:02;;;;;;;3.47;2.80;;;;;;;9.19;88.11;100380.63;5029301;28;20264;-90
2022/03/16 10:50:28;;;;;;;4.75;3.08;;;;;;;9.23;88.30;100382.09;5014010;28;20060;-90
2022/03/16 10:52:53;;;;;;;5.53;3.10;;;;;;;9.26;88.19;100377.38;5017834;28;20027;-88
2022/03/16 10:55:20;;;;;;;4.63;3.00;;;;;;;9.30;88.45;100375.31;5012081;28;20037;-88
2022/03/16 10:57:50;;;;;;;5.82;3.13;;;;;;;9.38;88.13;100381.75;5007565;28;20037;-90
2022/03/16 11:00:16;;;;;;;3.25;2.88;;;;;;;9.41;88.43;100376.16;5027122;28;20068;-90
2022/03/16 11:02:44;;;;;;;4.18;2.70;;;;;;;9.40;88.58;100373.63;5011412;28;20053;-90
2022/03/16 11:05:10;;;;;;;3.97;2.60;;;;;;;9.40;88.38;100379.81;5029178;28;20087;-88
2022/03/16 11:07:36;;;;;;;4.10;3.03;;;;;;;9.43;88.32;100371.56;5015194;28;20037;-89
2022/03/16 11:10:03;;;;;;;4.32;2.90;;;;;;;9.45;88.13;100368.78;5012100;28;20029;-91
2022/03/16 11:15:13;;;;;;;6.30;3.17;;;;;;;9.65;89.27;100362.72;5027524;28;20179;-90
2022/03/16 11:17:40;;;;;;;3.83;2.85;;;;;;;9.71;88.60;100358.72;5007477;28;20053;-91
2022/03/16 11:20:08;;;;;;;4.05;2.40;;;;;;;9.66;88.18;100364.44;5004263;28;20029;-92
2022/03/16 11:24:15;;;;;;;4.65;3.22;;;;;;;9.65;88.41;100364.56;5018793;28;20064;-91
2022/03/16 11:25:25;;;;;;;3.88;3.20;;;;;;;9.65;88.22;100367.22;5020385;28;20041;-88
2022/03/16 11:27:52;;;;;;;3.25;2.67;;;;;;;9.68;88.23;100373.16;5001756;28;20029;-91
2022/03/16 11:30:17;;;;;;;4.88;2.60;;;;;;;9.78;88.25;100362.59;5003314;28;20550;-91
2022/03/16 11:32:44;;;;;;;3.17;2.45;;;;;;;9.75;87.71;100362.84;5020082;28;20200;-91
2022/03/16 11:35:12;;;;;;;4.30;2.67;;;;;;;9.73;87.76;100359.44;5020387;28;20041;-91
2022/03/16 11:38:00;;;;;;;3.92;2.65;;;;;;;9.76;87.53;100357.38;5036060;28;20094;-91